Time;durP1;ratioP1;P1;durP2;ratioP2;P2;SDS_P1;SDS_P2;PMS_P1;PMS_P2;Temp;Humidity;BMP_temperature;BMP_pressure;BME280_temperature;BME280_humidity;BME280_pressure;Samples;Min_cycle;Max_cycle;Signal;HPM_P1;HPM_P2
2021/05/06 00:31:10;;;;;;;20.33;8.20;;;;;;;10.59;59.34;99134.13;5007068;28;20077;-63
2021/05/06 00:33:35;;;;;;;21.65;8.00;;;;;;;10.51;59.24;99128.19;5008650;28;20103;-60
2021/05/06 00:36:01;;;;;;;13.82;7.50;;;;;;;10.50;58.81;99130.88;5025820;28;20046;-61
2021/05/06 00:38:31;;;;;;;16.42;7.35;;;;;;;10.47;58.80;99138.91;5009574;28;20060;-60
2021/05/06 00:53:55;;;;;;;13.40;7.55;;;;;;;10.53;58.66;99126.38;4949697;28;20066;-66
2021/05/06 00:55:21;;;;;;;20.05;6.90;;;;;;;10.43;58.20;99097.50;4933099;28;20125;-70
2021/05/06 01:06:08;;;;;;;21.88;6.85;;;;;;;10.53;57.66;99112.25;4964105;28;20057;-65
2021/05/06 01:08:45;;;;;;;11.55;6.50;;;;;;;10.54;57.61;99112.19;4949242;28;20042;-65
2021/05/06 01:14:08;;;;;;;15.63;6.85;;;;;;;10.42;58.13;99117.00;4933756;28;20058;-63
2021/05/06 01:16:37;;;;;;;14.50;6.35;;;;;;;10.36;58.74;99118.03;4931915;28;20054;-66
2021/05/06 01:19:05;;;;;;;14.63;6.47;;;;;;;10.43;58.41;99113.41;4933313;28;20106;-65
2021/05/06 01:21:31;;;;;;;12.00;6.82;;;;;;;10.14;58.06;99077.22;4965439;28;20049;-65
2021/05/06 01:23:57;;;;;;;17.65;6.43;;;;;;;10.38;58.65;99104.75;5006507;28;20057;-75
2021/05/06 01:27:11;;;;;;;15.93;6.68;;;;;;;10.30;58.01;99089.09;4991267;28;20640;-73
2021/05/06 01:29:22;;;;;;;11.13;6.25;;;;;;;10.48;57.71;99101.75;5018001;28;20054;-66
2021/05/06 01:31:55;;;;;;;13.23;6.10;;;;;;;10.41;58.06;99102.00;5008685;28;20061;-64
2021/05/06 01:34:22;;;;;;;22.88;6.55;;;;;;;10.46;58.34;99103.63;5027036;28;20037;-65
2021/05/06 01:47:17;;;;;;;16.23;6.45;;;;;;;10.50;57.60;99114.97;4947584;28;20117;-63
2021/05/06 01:50:17;;;;;;;14.52;5.75;;;;;;;10.45;57.35;99101.88;4946606;28;20078;-64
2021/05/06 01:58:16;;;;;;;12.30;5.55;;;;;;;10.60;57.72;99103.19;4948425;28;20039;-62
2021/05/06 02:00:50;;;;;;;17.20;5.30;;;;;;;10.63;57.33;99101.31;4946716;28;20133;-63
2021/05/06 02:03:19;;;;;;;12.63;5.70;;;;;;;10.62;57.47;99098.69;4948030;28;20442;-60
2021/05/06 02:05:50;;;;;;;14.30;5.57;;;;;;;10.60;57.55;99095.25;4962697;28;20570;-62
2021/05/06 02:08:16;;;;;;;12.32;5.43;;;;;;;10.64;57.63;99100.38;4947115;28;20054;-64
2021/05/06 02:10:47;;;;;;;16.52;5.72;;;;;;;10.74;57.50;99098.31;4915812;28;20043;-66
2021/05/06 02:13:20;;;;;;;13.27;5.70;;;;;;;10.75;57.09;99097.38;4953376;28;20083;-64
2021/05/06 02:16:05;;;;;;;12.35;5.40;;;;;;;10.73;56.75;99085.97;4957089;28;20090;-60
2021/05/06 02:18:36;;;;;;;10.45;5.40;;;;;;;10.83;56.91;99093.59;5002433;28;20038;-68
2021/05/06 02:21:02;;;;;;;9.95;5.68;;;;;;;10.88;56.76;99085.50;4972450;28;20046;-63
2021/05/06 02:23:28;;;;;;;10.18;5.20;;;;;;;10.78;57.15;99076.09;5006449;28;20056;-63
2021/05/06 02:25:54;;;;;;;12.82;5.07;;;;;;;10.91;56.70;99090.72;4988503;28;20445;-65
2021/05/06 02:28:20;;;;;;;11.05;5.15;;;;;;;10.94;56.59;99085.28;4986739;28;20104;-63
2021/05/06 02:30:46;;;;;;;10.80;5.13;;;;;;;10.95;56.90;99089.69;5005362;28;20466;-60
2021/05/06 02:33:12;;;;;;;9.02;5.28;;;;;;;10.95;56.92;99084.41;5005790;28;20399;-62
2021/05/06 02:35:39;;;;;;;11.45;5.00;;;;;;;11.03;56.84;99092.97;4987326;28;20053;-68
2021/05/06 02:38:06;;;;;;;8.95;4.80;;;;;;;10.97;56.67;99063.97;4987223;28;20124;-65
2021/05/06 02:40:34;;;;;;;12.15;4.85;;;;;;;11.11;57.09;99088.28;5004444;28;20053;-62
2021/05/06 02:42:59;;;;;;;14.93;4.90;;;;;;;11.18;56.88;99090.66;5006109;28;20042;-61
2021/05/06 02:45:25;;;;;;;7.88;4.88;;;;;;;11.04;56.52;99070.81;5003248;28;20052;-69
2021/05/06 02:47:51;;;;;;;18.63;5.13;;;;;;;11.18;56.44;99085.38;5004249;28;20087;-63
2021/05/06 02:50:21;;;;;;;8.85;4.63;;;;;;;11.22;56.04;99067.53;5006070;28;20329;-63
2021/05/06 02:53:05;;;;;;;7.72;4.45;;;;;;;11.41;56.21;99085.47;4990608;28;20184;-66
2021/05/06 02:58:11;;;;;;;15.32;4.78;;;;;;;11.61;55.75;99090.97;5008090;28;20091;-64
2021/05/06 03:03:22;;;;;;;17.55;5.38;;;;;;;11.68;56.39;99091.63;5009625;28;20469;-62
2021/05/06 03:05:54;;;;;;;7.90;4.70;;;;;;;11.77;55.41;99096.59;5007308;28;20048;-64
2021/05/06 03:08:32;;;;;;;10.55;4.40;;;;;;;11.86;55.77;99093.63;4991485;28;20484;-64
2021/05/06 03:11:22;;;;;;;10.40;4.80;;;;;;;11.78;56.15;99091.25;5008071;28;20099;-68
2021/05/06 03:24:30;;;;;;;8.50;4.45;;;;;;;12.00;55.78;99073.63;5008931;28;20053;-63
2021/05/06 03:26:59;;;;;;;10.13;5.05;;;;;;;11.96;56.11;99087.06;5009409;28;20422;-67
2021/05/06 03:29:41;;;;;;;14.15;4.88;;;;;;;11.98;56.24;99094.06;5006110;28;20045;-62
2021/05/06 03:32:35;;;;;;;;;;;;;;;12.06;55.60;99089.31;5006388;28;20041;-64
2021/05/06 03:35:16;;;;;;;15.32;4.35;;;;;;;12.05;55.73;99090.25;5007865;28;19917;-63
2021/05/06 03:44:14;;;;;;;19.73;5.18;;;;;;;12.16;55.81;99098.72;5004976;28;20442;-65
2021/05/06 04:18:50;;;;;;;7.90;4.32;;;;;;;13.60;53.59;99081.34;5026573;28;20045;-63
2021/05/06 04:27:23;;;;;;;13.10;4.50;;;;;;;13.97;53.11;99076.16;5027549;28;20154;-63
2021/05/06 04:37:54;;;;;;;8.52;4.43;;;;;;;14.26;53.40;99073.06;5006443;28;20100;-64
2021/05/06 05:04:40;;;;;;;11.02;3.50;;;;;;;15.02;52.34;99047.13;4983398;28;20951;-62
2021/05/06 05:12:30;;;;;;;7.32;3.53;;;;;;;14.92;52.56;99055.66;4967590;28;20046;-62
2021/05/06 05:25:39;;;;;;;5.43;3.15;;;;;;;15.05;52.57;99057.66;4970239;28;20058;-65
2021/05/06 05:28:04;;;;;;;4.90;2.95;;;;;;;14.99;52.19;99039.25;4964034;28;20057;-65
2021/05/06 05:30:32;;;;;;;6.13;2.70;;;;;;;15.00;52.51;99027.66;4982410;28;20054;-67
2021/05/06 05:32:58;;;;;;;10.48;3.80;;;;;;;15.25;52.75;99051.31;4965325;28;20165;-66
2021/05/06 05:35:55;;;;;;;10.52;3.10;;;;;;;15.24;52.86;99042.47;4980961;28;20046;-71
2021/05/06 05:40:48;;;;;;;8.63;2.85;;;;;;;15.23;52.24;99029.19;5006767;28;20172;-63
2021/05/06 05:54:36;;;;;;;12.45;3.47;;;;;;;16.26;49.79;99015.63;5008092;28;20057;-67
2021/05/06 05:56:35;;;;;;;13.75;3.15;;;;;;;16.08;50.52;99005.06;4998176;28;20054;-66
2021/05/06 05:59:01;;;;;;;12.40;3.40;;;;;;;16.16;50.16;99034.94;5023817;28;20041;-68
2021/05/06 06:01:29;;;;;;;8.70;3.20;;;;;;;16.37;50.21;99023.03;5025386;28;20041;-67
2021/05/06 06:03:57;;;;;;;7.88;2.33;;;;;;;16.32;49.66;99023.31;4992892;28;20041;-66
2021/05/06 06:06:24;;;;;;;7.30;3.60;;;;;;;16.50;49.47;99018.81;5025328;28;20110;-70
2021/05/06 06:08:50;;;;;;;5.00;2.67;;;;;;;16.38;49.43;99027.47;4975378;28;20037;-66
2021/05/06 06:11:17;;;;;;;9.77;3.00;;;;;;;16.68;48.81;99017.75;5025772;28;20049;-65
2021/05/06 06:13:46;;;;;;;5.30;2.63;;;;;;;16.48;48.76;99016.22;4992177;28;20132;-65
2021/05/06 06:16:18;;;;;;;7.80;3.22;;;;;;;16.54;48.90;99015.00;5023370;28;20038;-66
2021/05/06 06:18:49;;;;;;;6.47;2.72;;;;;;;16.40;49.38;99012.19;5008718;28;20045;-65
2021/05/06 06:24:00;;;;;;;14.55;3.55;;;;;;;16.77;47.88;98995.84;4991863;28;20183;-66
2021/05/06 06:26:26;;;;;;;10.48;2.67;;;;;;;16.79;48.05;98997.47;5012175;28;20485;-65
2021/05/06 06:29:00;;;;;;;7.53;2.30;;;;;;;16.73;48.08;98989.78;5028922;28;20506;-72
2021/05/06 06:33:52;;;;;;;10.93;2.90;;;;;;;17.49;47.03;98989.72;5029646;28;20041;-64
2021/05/06 06:36:19;;;;;;;11.10;2.90;;;;;;;17.56;47.07;98985.72;5011457;28;20155;-69
2021/05/06 06:38:46;;;;;;;13.55;3.13;;;;;;;17.56;46.81;98993.75;5027329;28;20045;-66
2021/05/06 06:41:13;;;;;;;10.57;3.25;;;;;;;17.48;46.59;98987.13;5029239;28;20509;-65
2021/05/06 06:43:42;;;;;;;11.38;3.15;;;;;;;17.53;45.99;98990.41;4995798;28;20524;-66
2021/05/06 06:46:08;;;;;;;12.45;3.50;;;;;;;17.78;45.67;98978.09;4993857;28;20077;-66
2021/05/06 06:48:34;;;;;;;16.58;3.10;;;;;;;17.75;45.71;98980.97;4995706;28;20041;-67
2021/05/06 06:51:00;;;;;;;6.45;2.78;;;;;;;17.69;45.79;98951.84;5011791;28;20398;-66
2021/05/06 06:53:29;;;;;;;13.48;2.65;;;;;;;17.99;44.85;98971.41;4994663;28;20041;-71
2021/05/06 06:55:55;;;;;;;10.93;2.60;;;;;;;17.83;45.16;98967.94;5028562;28;20040;-67
2021/05/06 06:58:21;;;;;;;10.85;2.83;;;;;;;18.15;44.59;98963.25;5029005;28;20578;-67
2021/05/06 07:00:47;;;;;;;9.52;2.25;;;;;;;18.08;44.17;98976.19;5028463;28;20047;-68
2021/05/06 07:03:14;;;;;;;8.00;2.65;;;;;;;18.46;43.39;98955.00;4992590;28;20060;-67
2021/05/06 07:05:41;;;;;;;12.80;2.83;;;;;;;18.50;43.03;98958.31;5011389;28;20076;-67
2021/05/06 07:08:22;;;;;;;8.95;2.45;;;;;;;18.88;42.51;98943.25;4995274;28;20411;-67
2021/05/06 07:10:51;;;;;;;10.38;2.40;;;;;;;18.66;42.91;98951.03;5010508;28;20115;-67
2021/05/06 07:13:17;;;;;;;9.00;2.83;;;;;;;18.44;42.37;98956.94;5029006;28;20037;-66
2021/05/06 07:16:03;;;;;;;11.00;2.38;;;;;;;18.62;41.87;98942.28;5010912;28;20100;-72
2021/05/06 07:18:31;;;;;;;19.52;2.15;;;;;;;18.57;41.44;98931.00;5028209;28;20072;-66
2021/05/06 07:20:58;;;;;;;7.93;2.38;;;;;;;18.48;42.02;98914.63;4995038;28;20055;-65
2021/05/06 07:23:25;;;;;;;3.33;1.80;;;;;;;18.90;41.27;98922.53;4993649;28;20045;-71
2021/05/06 07:25:54;;;;;;;12.20;2.50;;;;;;;19.39;41.04;98924.53;4994121;28;20127;-65
2021/05/06 07:28:31;;;;;;;19.25;2.63;;;;;;;19.33;40.59;98926.75;5011373;28;20049;-66
2021/05/06 07:31:00;;;;;;;14.13;2.53;;;;;;;18.85;41.12;98916.59;5026467;28;20044;-72
2021/05/06 07:33:26;;;;;;;7.07;1.92;;;;;;;19.00;40.75;98921.81;5011017;28;20120;-66
2021/05/06 07:35:52;;;;;;;12.73;2.53;;;;;;;19.41;40.22;98932.44;4994477;28;20045;-66
2021/05/06 07:38:19;;;;;;;9.80;2.10;;;;;;;19.24;40.18;98938.13;5010346;28;20044;-67
2021/05/06 07:40:45;;;;;;;9.57;2.25;;;;;;;19.38;40.39;98920.09;5009132;28;20037;-67
2021/05/06 07:43:12;;;;;;;11.77;2.15;;;;;;;19.64;39.26;98940.66;5028789;28;20064;-68
2021/05/06 07:45:38;;;;;;;5.72;2.00;;;;;;;19.62;40.16;98937.19;4994191;28;20425;-66
2021/05/06 07:48:05;;;;;;;9.85;2.50;;;;;;;20.48;39.29;98931.88;5007488;28;20095;-72
2021/05/06 07:50:31;;;;;;;10.48;2.30;;;;;;;20.41;38.09;98919.81;5029001;28;20119;-65
2021/05/06 07:53:06;;;;;;;7.90;2.00;;;;;;;19.90;38.81;98937.00;4994467;28;20141;-67
2021/05/06 07:55:33;;;;;;;20.80;2.85;;;;;;;20.09;38.10;98926.69;5026761;28;20045;-70
2021/05/06 07:58:00;;;;;;;14.68;2.47;;;;;;;20.12;37.90;98904.06;5011183;28;20042;-67
2021/05/06 08:00:27;;;;;;;9.50;2.08;;;;;;;19.69;37.94;98918.81;4994526;28;20405;-66
2021/05/06 08:02:54;;;;;;;8.05;2.05;;;;;;;19.02;39.38;98956.66;5027064;28;20161;-67
2021/05/06 08:05:20;;;;;;;9.57;2.13;;;;;;;18.79;40.08;98927.75;5009515;28;20050;-65
2021/05/06 08:07:50;;;;;;;9.43;2.03;;;;;;;19.78;38.81;98912.81;5028753;28;20073;-67
2021/05/06 08:10:17;;;;;;;12.02;2.42;;;;;;;21.42;36.68;98910.28;5010744;28;20512;-65
2021/05/06 08:12:44;;;;;;;12.75;2.13;;;;;;;21.36;36.18;98909.91;5026573;28;20357;-65
2021/05/06 08:15:11;;;;;;;16.92;2.55;;;;;;;20.63;37.14;98911.00;4994810;28;20042;-69
2021/05/06 08:17:39;;;;;;;12.63;2.25;;;;;;;20.45;37.67;98912.38;5009808;28;20091;-67
2021/05/06 08:20:08;;;;;;;5.82;1.83;;;;;;;19.73;38.51;98905.03;4993496;28;20465;-70
2021/05/06 08:22:35;;;;;;;9.95;2.22;;;;;;;19.56;38.72;99031.78;5028182;28;20091;-67
2021/05/06 08:25:02;;;;;;;8.77;1.80;;;;;;;19.13;38.92;98946.03;5010603;28;20049;-68
2021/05/06 08:27:31;;;;;;;12.02;1.95;;;;;;;18.80;39.41;98911.53;4994208;28;20064;-66
2021/05/06 08:29:59;;;;;;;17.60;2.55;;;;;;;19.20;39.18;98933.91;5024458;28;20056;-67
2021/05/06 08:35:25;;;;;;;11.82;2.15;;;;;;;19.36;38.83;98935.47;5012019;28;20107;-67
2021/05/06 08:37:51;;;;;;;5.20;2.15;;;;;;;19.78;37.41;98970.13;4993775;28;20056;-66
2021/05/06 08:40:21;;;;;;;14.77;2.17;;;;;;;19.65;37.73;98954.97;4993618;28;20038;-67
2021/05/06 08:43:21;;;;;;;3.83;1.35;;;;;;;20.02;37.22;98902.97;4976150;28;20041;-68
2021/05/06 08:45:54;;;;;;;10.90;2.20;;;;;;;19.96;37.66;98909.66;4986624;28;20095;-68
2021/05/06 08:48:24;;;;;;;2.78;1.52;;;;;;;19.75;37.66;98997.28;5004843;28;20071;-67
2021/05/06 08:50:53;;;;;;;8.77;1.58;;;;;;;20.07;36.92;98908.88;5008065;28;20124;-68
2021/05/06 08:53:23;;;;;;;4.22;1.65;;;;;;;18.97;38.17;98902.34;4971728;28;20054;-73
2021/05/06 08:55:53;;;;;;;16.50;2.20;;;;;;;19.12;38.24;98906.69;5005891;28;20060;-68
2021/05/06 08:58:21;;;;;;;13.88;2.05;;;;;;;19.48;37.54;98913.13;4989284;28;20052;-66
2021/05/06 09:00:48;;;;;;;6.63;1.60;;;;;;;19.26;37.67;98925.47;4984087;28;20057;-72
2021/05/06 09:03:17;;;;;;;9.00;1.75;;;;;;;18.64;38.43;98948.44;4999168;28;20386;-69
2021/05/06 09:06:09;;;;;;;4.53;1.60;;;;;;;18.72;38.52;99001.63;4987387;28;20133;-67
2021/05/06 09:08:37;;;;;;;5.00;1.90;;;;;;;18.55;38.45;98940.97;4987324;28;20490;-65
2021/05/06 09:11:03;;;;;;;7.05;1.90;;;;;;;18.31;38.51;98957.78;4987909;28;20378;-65
2021/05/06 09:13:32;;;;;;;6.35;1.55;;;;;;;18.12;38.88;98922.34;5003356;28;20433;-67
2021/05/06 09:15:59;;;;;;;4.97;1.95;;;;;;;18.11;39.23;99028.78;5004154;28;20054;-66
2021/05/06 09:18:37;;;;;;;12.15;1.90;;;;;;;18.17;39.30;98963.16;4988453;28;20077;-66
2021/05/06 09:21:05;;;;;;;10.55;2.30;;;;;;;17.92;39.72;99004.91;5008539;28;20061;-70
2021/05/06 09:23:35;;;;;;;11.93;2.00;;;;;;;17.78;41.27;98959.34;4989828;28;20033;-69
2021/05/06 09:26:06;;;;;;;8.60;1.67;;;;;;;17.78;42.29;98979.91;4983204;28;20065;-67
2021/05/06 09:28:36;;;;;;;20.58;2.65;;;;;;;17.81;42.08;98947.56;5005957;28;20452;-74
2021/05/06 09:31:23;;;;;;;7.60;2.10;;;;;;;17.79;41.60;98976.25;4968995;28;20042;-72
2021/05/06 09:33:50;;;;;;;8.20;1.75;;;;;;;17.87;41.50;98958.75;5005369;28;20082;-67
2021/05/06 09:36:26;;;;;;;6.95;1.83;;;;;;;18.15;41.21;98970.44;5002337;28;20506;-66
2021/05/06 09:38:54;;;;;;;10.27;1.77;;;;;;;18.11;42.05;98971.59;5022216;28;20042;-67
2021/05/06 09:41:39;;;;;;;16.83;2.60;;;;;;;18.08;42.26;98965.44;5005340;28;20046;-66
2021/05/06 09:44:16;;;;;;;7.03;2.35;;;;;;;18.37;42.03;98971.69;5022579;28;20060;-67
2021/05/06 09:47:14;;;;;;;9.60;2.38;;;;;;;18.48;42.64;98957.56;4990006;28;20445;-70
2021/05/06 09:49:40;;;;;;;3.78;2.70;;;;;;;19.12;44.95;98992.69;5006288;28;20479;-67
2021/05/06 09:52:06;;;;;;;6.70;2.58;;;;;;;20.37;43.31;98944.41;5021441;28;20041;-71
2021/05/06 09:54:33;;;;;;;4.80;2.42;;;;;;;20.81;42.54;98934.75;5021406;28;20038;-69
2021/05/06 09:57:05;;;;;;;7.43;2.17;;;;;;;19.69;44.45;98948.38;4999069;28;20060;-67
2021/05/06 09:59:39;;;;;;;8.93;2.47;;;;;;;19.80;45.24;98933.25;4989420;28;20045;-67
2021/05/06 10:02:17;;;;;;;7.78;2.40;;;;;;;19.31;45.07;98923.31;4970035;28;20049;-67
2021/05/06 10:04:46;;;;;;;7.03;2.58;;;;;;;18.84;45.46;98907.69;5001869;28;20034;-68
2021/05/06 10:07:21;;;;;;;10.23;2.45;;;;;;;18.73;45.95;98922.78;5018990;28;20046;-66
2021/05/06 10:10:08;;;;;;;4.20;1.60;;;;;;;18.32;43.13;98924.59;5001223;28;20088;-70
2021/05/06 10:12:38;;;;;;;8.45;2.03;;;;;;;18.02;41.88;98930.97;4987412;28;20532;-70
2021/05/06 10:15:25;;;;;;;9.23;2.22;;;;;;;18.08;41.92;98920.81;5004941;28;20046;-67
2021/05/06 10:18:00;;;;;;;3.30;1.75;;;;;;;18.06;41.75;98934.31;5017219;28;20455;-68
2021/05/06 10:20:56;;;;;;;27.00;2.80;;;;;;;18.00;42.46;98967.75;4983234;28;20058;-69
2021/05/06 10:23:29;;;;;;;7.20;1.70;;;;;;;17.86;43.42;99039.31;5006118;28;20065;-69
2021/05/06 10:26:26;;;;;;;23.23;2.40;;;;;;;17.74;44.50;98997.16;4987648;28;20041;-68
2021/05/06 10:29:22;;;;;;;11.18;2.40;;;;;;;17.25;47.33;99020.63;4964236;28;20057;-69
2021/05/06 10:31:48;;;;;;;;;;;;;;;16.79;49.70;98992.13;5004945;28;20060;-65
2021/05/06 10:34:15;;;;;;;10.88;1.73;;;;;;;16.75;50.43;98993.25;4987647;28;19918;-65
2021/05/06 10:36:45;;;;;;;12.63;2.40;;;;;;;16.50;51.64;99016.13;5005728;28;20061;-69
2021/05/06 10:39:12;;;;;;;11.95;2.47;;;;;;;16.13;54.69;99025.25;5005379;28;20085;-71
2021/05/06 10:41:39;;;;;;;9.18;2.45;;;;;;;15.66;57.10;98994.84;5005897;28;20505;-68
2021/05/06 10:44:14;;;;;;;6.90;2.85;;;;;;;15.92;56.75;99045.16;5004594;28;20416;-67
2021/05/06 10:46:46;;;;;;;5.35;2.40;;;;;;;15.48;59.78;99041.25;4972348;28;20128;-73
2021/05/06 10:49:12;;;;;;;6.25;2.90;;;;;;;15.11;63.07;99006.59;5017583;28;20057;-68
2021/05/06 10:51:53;;;;;;;11.90;2.70;;;;;;;15.10;62.32;99010.22;5021513;28;20054;-69
2021/05/06 10:54:30;;;;;;;7.28;2.45;;;;;;;15.09;60.52;99003.16;5004243;28;20041;-69
2021/05/06 10:56:59;;;;;;;8.77;2.25;;;;;;;15.05;59.65;99014.94;5005507;28;20053;-70
2021/05/06 10:59:41;;;;;;;5.15;2.20;;;;;;;15.11;58.42;99024.44;5008653;28;20034;-68
2021/05/06 11:02:43;;;;;;;4.50;2.38;;;;;;;15.31;58.19;98994.94;5030295;28;20050;-69
2021/05/06 11:05:28;;;;;;;7.20;2.50;;;;;;;15.10;57.82;98996.88;5003060;28;20489;-68
2021/05/06 11:08:03;;;;;;;3.50;2.10;;;;;;;15.03;59.22;99019.47;4970908;28;20076;-65
2021/05/06 11:10:50;;;;;;;4.32;2.15;;;;;;;15.09;59.07;98992.47;4969265;28;20049;-67
2021/05/06 11:13:18;;;;;;;4.93;2.65;;;;;;;15.21;58.59;99007.00;4959816;28;20057;-73
2021/05/06 11:15:50;;;;;;;8.35;2.70;;;;;;;15.04;58.80;99009.69;5003639;28;20085;-70
2021/05/06 11:18:39;;;;;;;5.22;2.35;;;;;;;14.89;60.12;99013.09;4988769;28;20123;-71
2021/05/06 11:21:07;;;;;;;3.05;2.00;;;;;;;14.84;59.89;99021.34;4955566;28;20046;-72
2021/05/06 11:23:35;;;;;;;8.40;2.75;;;;;;;14.91;60.31;99025.41;4987452;28;20061;-68
2021/05/06 11:26:08;;;;;;;6.95;2.67;;;;;;;14.52;61.00;98984.66;4971092;28;20038;-68
2021/05/06 11:28:34;;;;;;;8.35;2.75;;;;;;;14.74;61.43;99041.41;4969217;28;20116;-74
2021/05/06 11:31:00;;;;;;;7.95;2.58;;;;;;;14.68;60.71;99057.69;4987593;28;20383;-68
2021/05/06 11:33:28;;;;;;;10.32;3.22;;;;;;;14.72;61.76;99031.75;4967880;28;20089;-69
2021/05/06 11:36:07;;;;;;;3.13;2.13;;;;;;;14.16;62.29;99004.19;5006598;28;20222;-69
2021/05/06 11:38:39;;;;;;;7.63;2.35;;;;;;;14.11;64.07;99046.22;4991147;28;20092;-68
2021/05/06 11:41:12;;;;;;;3.33;2.38;;;;;;;13.79;65.69;99063.63;5005318;28;20161;-71
2021/05/06 11:43:56;;;;;;;4.47;2.65;;;;;;;13.70;66.77;99053.38;4957445;28;20439;-68
2021/05/06 11:46:41;;;;;;;3.30;2.30;;;;;;;13.62;66.97;99045.69;5007639;28;20421;-68
2021/05/06 11:49:13;;;;;;;3.90;2.45;;;;;;;13.55;67.54;99032.72;5007660;28;20532;-71
2021/05/06 11:51:42;;;;;;;6.65;2.65;;;;;;;13.47;68.33;99034.84;4992140;28;20052;-71
2021/05/06 11:54:12;;;;;;;7.28;3.10;;;;;;;13.52;69.60;99015.09;5005596;28;20046;-76
2021/05/06 11:56:42;;;;;;;4.93;3.10;;;;;;;13.44;68.61;98995.03;4991792;28;20425;-70
2021/05/06 11:59:16;;;;;;;7.68;3.40;;;;;;;13.58;68.71;98998.81;5007461;28;20045;-70
2021/05/06 12:01:46;;;;;;;5.25;3.50;;;;;;;13.67;68.53;98957.59;4989482;28;20045;-70
2021/05/06 12:04:25;;;;;;;3.80;2.67;;;;;;;13.84;67.64;98977.22;4991448;28;20502;-71
2021/05/06 12:07:21;;;;;;;10.13;3.58;;;;;;;14.01;66.92;98959.56;5007810;28;20046;-75
2021/05/06 12:09:51;;;;;;;7.13;3.50;;;;;;;13.90;67.29;98955.59;5008544;28;20046;-69
2021/05/06 12:12:28;;;;;;;5.80;3.58;;;;;;;14.32;66.67;98946.56;5007953;28;20073;-70
2021/05/06 12:15:09;;;;;;;;;;;;;;;;;;;;;
2021/05/06 12:17:44;;;;;;;6.95;5.10;;;;;;;14.18;67.25;98978.31;4974786;28;20505;-77
2021/05/06 12:20:10;;;;;;;10.95;4.10;;;;;;;14.20;67.54;98979.13;4990721;28;20103;-69
2021/05/06 12:22:37;;;;;;;8.25;4.28;;;;;;;14.10;67.36;98946.69;4974880;28;20046;-71
2021/05/06 12:25:07;;;;;;;8.55;4.22;;;;;;;14.16;67.64;98961.53;4999440;28;20042;-75
2021/05/06 12:27:40;;;;;;;10.30;4.15;;;;;;;13.82;67.47;98943.59;4991142;28;20831;-71
2021/05/06 12:30:14;;;;;;;6.35;3.97;;;;;;;13.94;66.60;98914.53;4975598;28;20485;-68
2021/05/06 12:32:47;;;;;;;8.43;3.53;;;;;;;14.03;66.87;98934.59;5004282;28;20038;-72
2021/05/06 12:35:15;;;;;;;5.63;3.80;;;;;;;13.96;66.81;98953.59;5015584;28;20049;-71
2021/05/06 12:37:46;;;;;;;5.13;3.63;;;;;;;13.99;67.33;98962.31;5006607;28;20489;-71
2021/05/06 12:40:14;;;;;;;10.95;3.40;;;;;;;14.09;67.41;98933.44;5021361;28;20048;-75
2021/05/06 12:42:46;;;;;;;4.93;3.63;;;;;;;14.06;67.93;98934.44;4990623;28;20119;-84
2021/05/06 12:45:16;;;;;;;9.93;3.58;;;;;;;14.00;68.01;98905.41;5007158;28;20528;-69
2021/05/06 12:47:49;;;;;;;9.38;3.38;;;;;;;14.55;66.59;98922.31;5006551;28;20431;-74
2021/05/06 12:50:35;;;;;;;9.80;4.05;;;;;;;14.79;65.85;98918.44;4994107;28;20046;-74
2021/05/06 12:53:08;;;;;;;4.82;3.97;;;;;;;15.11;64.91;98910.47;4988822;28;20084;-75
2021/05/06 12:55:40;;;;;;;8.45;4.40;;;;;;;15.42;64.04;98897.28;4990280;28;20481;-75
2021/05/06 12:58:15;;;;;;;9.15;4.75;;;;;;;15.56;63.21;98892.06;4990322;28;20136;-76
2021/05/06 13:00:45;;;;;;;9.65;4.32;;;;;;;15.58;62.81;98889.31;5005258;28;20045;-76
2021/05/06 13:03:16;;;;;;;10.35;5.05;;;;;;;15.73;63.33;98859.06;4991957;28;20477;-76
2021/05/06 13:05:50;;;;;;;11.80;5.95;;;;;;;15.76;62.17;98893.66;5022475;28;20394;-75
2021/05/06 13:08:16;;;;;;;10.13;5.97;;;;;;;15.79;62.56;98877.47;5022696;28;20834;-78
2021/05/06 13:10:44;;;;;;;8.32;5.45;;;;;;;15.52;62.49;98871.81;5006950;28;20045;-78
2021/05/06 13:13:30;;;;;;;9.52;4.60;;;;;;;15.68;62.27;98861.13;5005379;28;20044;-74
2021/05/06 13:15:56;;;;;;;6.22;4.38;;;;;;;15.79;61.86;98864.09;5006477;28;20399;-73
2021/05/06 13:18:37;;;;;;;6.78;4.95;;;;;;;15.71;61.12;98842.28;5133309;27;20131;-74
2021/05/06 13:21:05;;;;;;;10.48;4.13;;;;;;;15.95;60.94;98852.44;5123586;28;20045;-73
2021/05/06 13:23:35;;;;;;;10.27;4.68;;;;;;;15.67;61.24;98868.28;5089160;28;20515;-72
2021/05/06 13:26:06;;;;;;;8.32;4.60;;;;;;;15.71;61.18;98863.66;5106024;28;20462;-73
2021/05/06 13:28:32;;;;;;;14.23;5.82;;;;;;;15.69;61.86;98878.91;5071417;28;20043;-72
2021/05/06 13:31:11;;;;;;;15.38;5.40;;;;;;;15.74;60.86;98880.38;5106103;28;20039;-73
2021/05/06 13:33:40;;;;;;;12.90;5.70;;;;;;;15.79;61.06;98864.09;5123303;28;20047;-75
2021/05/06 13:36:23;;;;;;;9.70;5.45;;;;;;;15.80;60.96;98868.47;5092281;28;20051;-76
2021/05/06 13:39:03;;;;;;;17.75;4.88;;;;;;;15.93;60.42;98874.88;5075474;28;20035;-75
2021/05/06 13:41:32;;;;;;;13.32;5.20;;;;;;;16.15;60.13;98865.59;5106370;28;20035;-74
2021/05/06 13:44:13;;;;;;;9.63;4.57;;;;;;;16.15;58.58;98838.84;5123768;28;20529;-73
2021/05/06 13:46:53;;;;;;;13.85;4.70;;;;;;;16.58;57.91;98864.84;5104129;28;20075;-73
2021/05/06 13:49:27;;;;;;;8.95;4.80;;;;;;;16.44;57.87;98859.44;5088594;28;20175;-73
2021/05/06 13:51:54;;;;;;;9.65;5.03;;;;;;;16.34;57.89;98868.91;5064551;28;20156;-76
2021/05/06 13:54:21;;;;;;;7.68;4.18;;;;;;;16.01;57.40;98843.22;5123794;28;20360;-72
2021/05/06 13:56:47;;;;;;;12.25;5.20;;;;;;;16.29;57.29;98854.94;5124876;28;20039;-72
2021/05/06 13:59:17;;;;;;;9.80;3.47;;;;;;;16.14;53.90;98868.34;5106893;28;20039;-73
2021/05/06 14:01:53;;;;;;;8.73;2.97;;;;;;;16.08;52.27;98866.00;5088138;28;20714;-73
2021/05/06 14:04:20;;;;;;;6.97;2.70;;;;;;;16.27;50.60;98877.38;5087906;28;20047;-73
2021/05/06 14:06:48;;;;;;;4.15;2.22;;;;;;;16.26;48.52;98902.41;5069631;28;20061;-71
2021/05/06 14:09:17;;;;;;;8.40;3.20;;;;;;;16.18;48.62;98869.88;5088081;28;20568;-70
2021/05/06 14:11:44;;;;;;;8.23;2.53;;;;;;;16.09;48.95;98855.22;5104723;28;20039;-69
2021/05/06 14:14:11;;;;;;;5.28;2.35;;;;;;;16.14;48.67;98895.09;5104105;28;20046;-69
2021/05/06 14:16:40;;;;;;;5.30;2.10;;;;;;;16.12;47.64;98897.84;5085740;28;20092;-68
2021/05/06 14:19:08;;;;;;;7.68;2.80;;;;;;;16.08;48.26;98877.56;5087638;28;20502;-69
2021/05/06 14:21:38;;;;;;;5.10;2.28;;;;;;;16.10;47.69;98888.19;5071666;28;20046;-70
2021/05/06 14:24:04;;;;;;;7.30;2.53;;;;;;;16.09;47.42;98871.25;5102967;28;20058;-70
2021/05/06 14:26:33;;;;;;;3.95;1.95;;;;;;;15.95;47.70;98870.31;5070480;28;20108;-70
2021/05/06 14:28:59;;;;;;;4.20;2.42;;;;;;;16.06;47.35;98862.56;5062526;28;20054;-70
2021/05/06 14:31:26;;;;;;;6.00;2.42;;;;;;;15.97;47.25;98877.28;5072006;28;20092;-70
2021/05/06 14:33:51;;;;;;;6.93;2.92;;;;;;;15.96;47.81;98875.56;5089118;28;20118;-70
2021/05/06 14:36:21;;;;;;;7.47;2.40;;;;;;;15.92;47.83;98876.69;5090488;28;20142;-70
2021/05/06 14:38:47;;;;;;;9.40;3.55;;;;;;;15.95;48.32;98881.84;5109705;28;20047;-70
2021/05/06 14:41:13;;;;;;;7.68;3.28;;;;;;;15.93;48.76;98873.06;5055777;28;20039;-70
2021/05/06 14:43:39;;;;;;;7.07;2.60;;;;;;;15.44;49.04;98801.03;5109544;28;20120;-69
2021/05/06 14:46:07;;;;;;;4.75;2.30;;;;;;;15.75;48.96;98894.63;5075236;28;20150;-70
2021/05/06 14:48:34;;;;;;;6.32;2.63;;;;;;;15.59;52.27;98925.78;5087705;28;20158;-70
2021/05/06 14:51:03;;;;;;;6.00;2.92;;;;;;;14.85;56.29;98896.75;5108200;28;20078;-69
2021/05/06 14:53:30;;;;;;;6.68;2.83;;;;;;;13.85;63.77;98930.13;5108182;28;20044;-68
2021/05/06 14:55:59;;;;;;;6.53;3.03;;;;;;;13.93;61.25;98933.28;5071552;28;20059;-72
2021/05/06 14:58:28;;;;;;;3.10;2.08;;;;;;;14.00;59.53;98921.38;5107443;28;20074;-71
2021/05/06 15:00:55;;;;;;;9.10;2.58;;;;;;;14.06;59.74;98933.56;5072973;28;20142;-65
2021/05/06 15:03:21;;;;;;;7.32;2.63;;;;;;;14.07;59.54;98900.63;5106533;28;20047;-66
2021/05/06 15:05:52;;;;;;;9.13;2.78;;;;;;;14.11;59.13;98916.41;5073557;28;20401;-67
2021/05/06 15:08:21;;;;;;;6.07;2.65;;;;;;;14.09;58.74;98889.00;5108331;28;20053;-69
2021/05/06 15:10:50;;;;;;;6.72;3.13;;;;;;;14.23;58.43;98926.53;5058928;23;20111;-66